Time;durP1;ratioP1;P1;durP2;ratioP2;P2;SDS_P1;SDS_P2;PMS_P1;PMS_P2;Temp;Humidity;BMP_temperature;BMP_pressure;BME280_temperature;BME280_humidity;BME280_pressure;Samples;Min_cycle;Max_cycle;Signal;HPM_P1;HPM_P2
2021/10/26 00:01:04;;;;;;;16.02;9.43;;;;;;;8.63;100.00;102532.31;4936841;29;20035;-71
2021/10/26 00:03:50;;;;;;;14.80;10.02;;;;;;;8.75;100.00;102535.16;4924262;29;20035;-71
2021/10/26 00:06:37;;;;;;;17.35;10.15;;;;;;;8.81;100.00;102525.69;4937832;29;20031;-71
2021/10/26 00:09:23;;;;;;;16.50;10.07;;;;;;;8.84;100.00;102524.91;4924715;29;20126;-71
2021/10/26 00:12:10;;;;;;;14.57;9.55;;;;;;;8.62;100.00;102522.72;4937617;29;20365;-71
2021/10/26 00:14:55;;;;;;;16.27;10.50;;;;;;;8.39;100.00;102524.88;4924471;29;20045;-71
2021/10/26 00:17:41;;;;;;;15.75;9.77;;;;;;;8.49;100.00;102521.59;4937034;29;20024;-71
2021/10/26 00:20:27;;;;;;;16.25;10.35;;;;;;;8.39;100.00;102524.88;4923026;29;20055;-71
2021/10/26 00:23:13;;;;;;;16.73;10.25;;;;;;;8.76;100.00;102518.66;4938090;28;20027;-71
2021/10/26 00:25:59;;;;;;;15.82;10.55;;;;;;;8.43;100.00;102513.66;4937513;29;20083;-69
2021/10/26 00:28:44;;;;;;;16.35;10.32;;;;;;;8.35;100.00;102511.72;4938015;29;20338;-71
2021/10/26 00:31:32;;;;;;;14.00;10.82;;;;;;;8.63;100.00;102514.03;4938001;28;20071;-71
2021/10/26 00:34:18;;;;;;;14.05;10.10;;;;;;;8.26;100.00;102506.31;4938234;28;20028;-70
2021/10/26 00:37:04;;;;;;;14.48;10.20;;;;;;;7.82;100.00;102507.06;4937946;29;20158;-70
2021/10/26 00:39:50;;;;;;;16.38;10.70;;;;;;;7.91;100.00;102508.16;4937890;29;20035;-70
2021/10/26 00:42:35;;;;;;;17.17;10.15;;;;;;;7.59;100.00;102498.72;4937223;29;20028;-70
2021/10/26 00:45:22;;;;;;;16.02;11.02;;;;;;;7.58;100.00;102502.19;4937129;29;20453;-72
2021/10/26 00:48:08;;;;;;;17.20;10.35;;;;;;;7.75;100.00;102508.66;4937227;29;20032;-69
2021/10/26 00:50:54;;;;;;;14.93;9.75;;;;;;;7.77;100.00;102503.50;4924040;29;20031;-71
2021/10/26 00:53:41;;;;;;;16.75;9.65;;;;;;;8.20;100.00;102496.59;4937530;29;20051;-70
2021/10/26 00:56:27;;;;;;;21.00;10.15;;;;;;;7.49;100.00;102490.66;4937082;29;20024;-70
2021/10/26 00:59:13;;;;;;;18.05;10.75;;;;;;;7.13;100.00;102489.78;4937466;29;20039;-71
2021/10/26 01:01:59;;;;;;;15.55;10.23;;;;;;;7.32;100.00;102492.88;4937766;29;20110;-70
2021/10/26 01:04:45;;;;;;;17.67;10.82;;;;;;;7.30;100.00;102493.69;4936941;29;20086;-70
2021/10/26 01:07:32;;;;;;;19.15;11.27;;;;;;;7.47;100.00;102488.03;4937325;28;20049;-71
2021/10/26 01:10:18;;;;;;;22.90;12.05;;;;;;;7.14;100.00;102486.34;4937409;28;20055;-70
2021/10/26 01:13:04;;;;;;;21.10;11.60;;;;;;;7.44;100.00;102484.47;4937972;28;20094;-70
2021/10/26 01:15:54;;;;;;;19.58;12.30;;;;;;;7.60;100.00;102479.63;4923712;29;20044;-70
2021/10/26 01:18:40;;;;;;;21.08;12.80;;;;;;;7.65;100.00;102483.25;4941509;28;20036;-70
2021/10/26 01:21:25;;;;;;;23.00;13.48;;;;;;;7.56;100.00;102482.16;4940883;29;20055;-71
2021/10/26 01:24:11;;;;;;;37.08;14.65;;;;;;;7.87;100.00;102480.22;4940746;29;20425;-71
2021/10/26 01:26:58;;;;;;;30.38;13.65;;;;;;;7.66;100.00;102479.78;4940815;28;20028;-71
2021/10/26 01:29:44;;;;;;;27.90;13.45;;;;;;;7.50;100.00;102480.28;4940559;29;20086;-70
2021/10/26 01:32:30;;;;;;;32.90;13.18;;;;;;;7.57;100.00;102479.56;4941244;28;20449;-70
2021/10/26 01:35:16;;;;;;;38.20;13.90;;;;;;;7.13;100.00;102488.06;4926880;29;20130;-70
2021/10/26 01:38:03;;;;;;;27.88;13.25;;;;;;;7.23;100.00;102483.97;4940914;28;20106;-70
2021/10/26 01:40:49;;;;;;;36.08;14.23;;;;;;;7.17;100.00;102483.81;4940793;28;20059;-70
2021/10/26 01:43:35;;;;;;;29.60;13.57;;;;;;;6.95;100.00;102482.38;4940551;29;20055;-70
2021/10/26 01:46:21;;;;;;;32.35;13.73;;;;;;;6.60;100.00;102478.00;4940588;28;20376;-70
2021/10/26 01:49:07;;;;;;;20.63;12.88;;;;;;;7.18;100.00;102473.41;4940579;28;20031;-69
2021/10/26 01:51:53;;;;;;;33.13;13.60;;;;;;;6.99;100.00;102478.16;4926507;29;20032;-70
2021/10/26 01:54:40;;;;;;;27.17;13.75;;;;;;;7.35;100.00;102471.22;4940053;29;20110;-70
2021/10/26 01:57:27;;;;;;;31.35;12.75;;;;;;;7.14;100.00;102466.38;4940503;29;20027;-70
2021/10/26 02:00:14;;;;;;;30.95;13.73;;;;;;;7.49;100.00;102460.25;4939901;29;20028;-70
2021/10/26 02:03:00;;;;;;;29.27;14.02;;;;;;;6.91;100.00;102461.44;4940702;28;20046;-71
2021/10/26 02:05:45;;;;;;;32.22;13.55;;;;;;;7.05;100.00;102458.34;4940553;29;20046;-69
2021/10/26 02:08:31;;;;;;;36.92;13.90;;;;;;;6.74;100.00;102454.91;4939127;29;20027;-71
2021/10/26 02:11:17;;;;;;;24.73;13.88;;;;;;;7.02;100.00;102465.19;4940374;28;20043;-70
2021/10/26 02:14:04;;;;;;;29.85;15.20;;;;;;;6.94;100.00;102457.19;4940063;28;20059;-71
2021/10/26 02:16:51;;;;;;;26.60;14.82;;;;;;;6.98;100.00;102463.34;4926494;29;20028;-70
2021/10/26 02:19:37;;;;;;;20.77;13.82;;;;;;;7.07;100.00;102460.97;4940349;28;20082;-71
2021/10/26 02:22:22;;;;;;;27.13;14.68;;;;;;;6.75;100.00;102464.50;4939434;29;20023;-70
2021/10/26 02:25:08;;;;;;;21.38;13.25;;;;;;;6.79;100.00;102462.00;4940314;29;20107;-69
2021/10/26 02:27:54;;;;;;;27.25;14.02;;;;;;;6.67;100.00;102464.28;4939131;29;20031;-70
2021/10/26 02:30:41;;;;;;;31.15;14.20;;;;;;;6.96;100.00;102460.72;4940140;29;20118;-71
2021/10/26 02:33:27;;;;;;;21.80;14.00;;;;;;;6.82;100.00;102451.66;4939426;29;20043;-70
2021/10/26 02:36:12;;;;;;;26.25;14.52;;;;;;;6.66;100.00;102454.72;4939932;28;20036;-71
2021/10/26 02:38:58;;;;;;;27.58;13.98;;;;;;;6.51;100.00;102449.09;4938557;29;20516;-70
2021/10/26 02:41:44;;;;;;;24.73;14.23;;;;;;;6.58;100.00;102456.25;4939216;29;20074;-70
2021/10/26 02:44:30;;;;;;;23.88;13.75;;;;;;;6.90;100.00;102444.03;4939822;28;20390;-70
2021/10/26 02:47:16;;;;;;;23.77;13.82;;;;;;;7.09;100.00;102447.16;4939827;28;20096;-70
2021/10/26 02:50:02;;;;;;;23.52;13.82;;;;;;;6.50;100.00;102449.94;4939736;29;20357;-70
2021/10/26 02:52:48;;;;;;;26.52;15.10;;;;;;;6.56;100.00;102450.13;4939444;28;20043;-71
2021/10/26 02:55:33;;;;;;;21.45;14.05;;;;;;;6.42;100.00;102450.56;4938964;29;20027;-71
2021/10/26 02:58:20;;;;;;;23.65;13.38;;;;;;;6.56;100.00;102447.53;4939390;29;20437;-70
2021/10/26 03:01:06;;;;;;;20.80;13.07;;;;;;;6.63;100.00;102441.59;4939507;28;20028;-70
2021/10/26 03:03:52;;;;;;;24.08;13.10;;;;;;;6.82;100.00;102448.16;4940121;28;20031;-70
2021/10/26 03:06:38;;;;;;;23.80;13.70;;;;;;;6.65;100.00;102446.88;4938507;29;20031;-71
2021/10/26 03:09:24;;;;;;;23.98;13.48;;;;;;;6.66;100.00;102453.81;4939228;28;20047;-70
2021/10/26 03:12:10;;;;;;;20.83;12.82;;;;;;;6.63;100.00;102444.22;4939503;28;20153;-70
2021/10/26 03:14:55;;;;;;;22.45;13.07;;;;;;;6.94;100.00;102444.16;4937913;29;20070;-71
2021/10/26 03:17:41;;;;;;;24.67;13.40;;;;;;;6.71;100.00;102441.81;4937846;29;20030;-70
2021/10/26 03:20:27;;;;;;;22.63;13.57;;;;;;;6.59;100.00;102431.09;4938671;29;20043;-70
2021/10/26 03:23:13;;;;;;;22.08;13.20;;;;;;;6.54;100.00;102443.09;4925090;29;20457;-70
2021/10/26 03:25:59;;;;;;;24.08;14.13;;;;;;;6.52;100.00;102431.78;4937634;29;20035;-70
2021/10/26 03:28:45;;;;;;;20.20;12.43;;;;;;;6.61;100.00;102434.59;4937613;29;20070;-71
2021/10/26 03:31:30;;;;;;;19.13;11.52;;;;;;;6.41;100.00;102423.69;4939098;28;20039;-69
2021/10/26 03:34:16;;;;;;;22.02;12.70;;;;;;;6.29;100.00;102423.34;4938814;29;20028;-70
2021/10/26 03:37:04;;;;;;;23.48;12.10;;;;;;;6.25;100.00;102421.50;4938771;29;20381;-71
2021/10/26 03:39:55;;;;;;;20.30;12.10;;;;;;;6.25;100.00;102433.63;4938248;28;20083;-70
2021/10/26 03:42:41;;;;;;;16.50;10.30;;;;;;;6.44;100.00;102431.59;4938446;29;20091;-70
2021/10/26 03:45:26;;;;;;;15.98;10.82;;;;;;;6.36;100.00;102432.22;4937829;29;20023;-70
2021/10/26 03:48:13;;;;;;;20.45;10.25;;;;;;;6.37;100.00;102434.84;4938536;28;20024;-70
2021/10/26 03:50:58;;;;;;;18.98;10.50;;;;;;;6.36;100.00;102437.41;4938884;28;20094;-70
2021/10/26 03:53:44;;;;;;;15.15;10.07;;;;;;;6.38;100.00;102427.94;4937173;29;20031;-71
2021/10/26 03:56:30;;;;;;;18.95;10.85;;;;;;;6.54;100.00;102424.88;4937822;29;20035;-70
2021/10/26 03:59:16;;;;;;;19.10;10.93;;;;;;;5.73;100.00;102432.97;4937805;29;20027;-70
2021/10/26 04:02:08;;;;;;;18.25;10.77;;;;;;;6.02;100.00;102435.59;4938440;28;20031;-70
2021/10/26 04:05:00;;;;;;;15.93;11.20;;;;;;;5.91;100.00;102421.41;4938605;28;20453;-71
2021/10/26 04:07:52;;;;;;;17.83;10.88;;;;;;;6.15;100.00;102434.22;4938112;28;20027;-70
2021/10/26 04:10:51;;;;;;;16.77;10.60;;;;;;;6.38;100.00;102421.00;4937929;29;20493;-69
2021/10/26 04:13:36;;;;;;;21.30;11.75;;;;;;;6.30;100.00;102422.50;4937961;29;20449;-71
2021/10/26 04:16:22;;;;;;;21.17;12.65;;;;;;;5.95;100.00;102423.25;4923983;29;20067;-70
2021/10/26 04:19:10;;;;;;;21.90;12.93;;;;;;;5.57;100.00;102423.84;4937237;28;20035;-70
2021/10/26 04:21:55;;;;;;;19.02;12.10;;;;;;;5.83;100.00;102422.03;4937675;28;20032;-71
2021/10/26 04:24:42;;;;;;;23.55;13.05;;;;;;;6.07;100.00;102409.72;4937938;28;20089;-71
2021/10/26 04:27:28;;;;;;;26.65;13.60;;;;;;;6.34;100.00;102411.34;4936755;29;20036;-70
2021/10/26 04:30:14;;;;;;;22.83;12.48;;;;;;;6.56;100.00;102415.38;4937445;29;20038;-71
2021/10/26 04:33:01;;;;;;;28.52;13.70;;;;;;;6.29;100.00;102410.34;4924088;29;20047;-72
2021/10/26 04:35:47;;;;;;;19.73;12.30;;;;;;;6.15;100.00;102405.59;4937767;28;20468;-71
2021/10/26 04:38:32;;;;;;;24.20;12.20;;;;;;;6.04;100.00;102405.31;4937381;28;20115;-71
2021/10/26 04:41:18;;;;;;;23.15;12.65;;;;;;;6.40;100.00;102408.91;4937881;29;20066;-71
2021/10/26 04:44:04;;;;;;;24.90;12.88;;;;;;;6.21;100.00;102404.06;4937856;29;20028;-72
2021/10/26 04:46:50;;;;;;;30.15;15.65;;;;;;;6.51;100.00;102417.00;4937614;29;20039;-70
2021/10/26 04:49:36;;;;;;;57.58;26.73;;;;;;;6.68;100.00;102407.88;4937735;29;20038;-70
2021/10/26 04:52:22;;;;;;;63.45;30.42;;;;;;;6.14;100.00;102409.91;4941040;28;20133;-70
2021/10/26 04:55:08;;;;;;;73.20;31.27;;;;;;;6.25;100.00;102408.50;4941718;28;20174;-71
2021/10/26 04:57:54;;;;;;;73.78;34.80;;;;;;;6.26;100.00;102412.00;4927665;29;20338;-71
2021/10/26 05:00:40;;;;;;;83.53;41.53;;;;;;;6.41;100.00;102415.88;4941244;28;20043;-70
2021/10/26 05:03:27;;;;;;;74.28;35.42;;;;;;;6.35;100.00;102413.09;4942479;28;20384;-70
2021/10/26 05:06:13;;;;;;;62.33;32.47;;;;;;;6.49;100.00;102413.47;4940441;28;20028;-70
2021/10/26 05:08:59;;;;;;;86.20;45.67;;;;;;;6.60;100.00;102417.22;4941271;29;20380;-70
2021/10/26 05:11:45;;;;;;;107.68;56.40;;;;;;;6.50;100.00;102417.81;4941222;29;20028;-71
2021/10/26 05:14:31;;;;;;;111.60;63.80;;;;;;;6.63;100.00;102417.31;4940087;29;20027;-70
2021/10/26 05:17:22;;;;;;;37.00;21.95;;;;;;;6.78;100.00;102421.16;4941266;28;20097;-70
2021/10/26 05:20:10;;;;;;;40.70;21.33;;;;;;;6.75;100.00;102428.91;4928009;28;20330;-70
2021/10/26 05:22:56;;;;;;;26.90;16.38;;;;;;;6.60;100.00;102425.03;4940870;28;20412;-69
2021/10/26 05:25:42;;;;;;;29.02;16.55;;;;;;;6.69;100.00;102430.47;4941317;28;20027;-70
2021/10/26 05:28:28;;;;;;;43.45;22.52;;;;;;;6.58;100.00;102439.72;4941168;29;20027;-70
2021/10/26 05:31:14;;;;;;;34.45;19.90;;;;;;;6.69;100.00;102433.09;4941212;28;20397;-71
2021/10/26 12:17:08;;;;;;;12.95;6.22;;;;;;;15.37;100.00;102095.22;5133069;27;20371;-73
2021/10/26 12:19:57;;;;;;;10.45;5.75;;;;;;;15.18;100.00;102091.06;5137210;27;20085;-72
2021/10/26 12:22:49;;;;;;;12.20;5.80;;;;;;;15.36;100.00;102092.59;5138398;27;20019;-71
2021/10/26 12:25:43;;;;;;;10.38;6.20;;;;;;;15.89;100.00;102079.38;5138015;27;20027;-72
2021/10/26 12:45:10;;;;;;;11.95;5.40;;;;;;;15.36;100.00;102079.41;5138735;22;20080;-72
2021/10/26 12:48:06;;;;;;;9.07;6.75;;;;;;;15.41;100.00;102067.88;5070124;28;20047;-72
2021/10/26 12:51:02;;;;;;;11.38;5.40;;;;;;;15.74;100.00;102063.78;5069828;28;20021;-73
2021/10/26 12:53:48;;;;;;;12.00;6.15;;;;;;;15.80;100.00;102061.94;5070744;28;20024;-73
2021/10/26 12:56:34;;;;;;;10.07;5.45;;;;;;;15.72;100.00;102058.56;5069869;28;20029;-72
2021/10/26 12:59:31;;;;;;;7.20;5.30;;;;;;;15.62;100.00;102067.53;5070944;28;20029;-72
2021/10/26 13:02:19;;;;;;;15.25;6.18;;;;;;;15.56;100.00;102062.34;5071513;28;20372;-73
2021/10/26 13:58:34;;;;;;;10.75;4.28;;;;;;;16.02;97.28;102060.63;5201825;23;20082;-74
2021/10/26 14:01:19;;;;;;;7.57;3.95;;;;;;;15.84;97.46;102061.00;4996578;28;20038;-73
2021/10/26 14:04:05;;;;;;;4.50;3.58;;;;;;;15.78;98.16;102057.56;4997000;28;20073;-72
2021/10/26 14:06:51;;;;;;;9.52;4.18;;;;;;;15.69;99.64;102063.00;4995913;28;20466;-72
2021/10/26 14:09:36;;;;;;;6.03;4.10;;;;;;;15.68;100.00;102054.22;4997019;28;20374;-73
2021/10/26 14:12:22;;;;;;;6.18;3.70;;;;;;;15.25;100.00;102061.06;4997166;28;20031;-73
2021/10/26 14:15:08;;;;;;;57.33;33.15;;;;;;;15.25;100.00;102070.72;4996075;28;20018;-73
2021/10/26 14:17:54;;;;;;;44.20;26.27;;;;;;;15.41;100.00;102067.00;4990265;28;20149;-72
2021/10/26 14:20:43;;;;;;;9.77;4.97;;;;;;;15.36;100.00;102063.56;4995383;28;20149;-72
2021/10/26 14:23:31;;;;;;;15.77;8.30;;;;;;;15.51;100.00;102068.59;4995212;28;20100;-71
2021/10/26 14:26:17;;;;;;;9.60;5.00;;;;;;;15.45;100.00;102068.69;4996069;28;20026;-71
2021/10/26 14:29:02;;;;;;;10.70;8.18;;;;;;;15.46;100.00;102066.03;4994920;28;20100;-71
2021/10/26 14:31:48;;;;;;;11.07;7.93;;;;;;;15.31;100.00;102065.38;4996378;28;20359;-71
2021/10/26 14:34:37;;;;;;;7.85;5.43;;;;;;;15.32;100.00;102068.00;4996343;28;20029;-71
2021/10/26 16:08:11;;;;;;;16.08;9.40;;;;;;;13.85;100.00;102118.09;5302279;23;20051;-71
2021/10/26 16:11:13;;;;;;;20.65;12.07;;;;;;;13.74;100.00;102114.69;4994983;28;20403;-71
2021/10/26 16:14:05;;;;;;;14.50;8.15;;;;;;;13.52;100.00;102115.75;4994428;28;20038;-72
2021/10/26 16:16:51;;;;;;;10.85;7.45;;;;;;;13.84;100.00;102118.13;4994223;28;20023;-71
2021/10/26 16:19:36;;;;;;;13.00;6.88;;;;;;;13.30;100.00;102123.81;4986414;28;20049;-71
2021/10/26 16:22:22;;;;;;;32.70;24.23;;;;;;;13.46;100.00;102128.94;4994040;28;20023;-71
2021/10/26 17:43:20;;;;;;;20.17;12.25;;;;;;;12.28;100.00;102114.56;5551309;23;20566;-72
2021/10/26 17:46:07;;;;;;;19.40;12.40;;;;;;;12.19;100.00;102111.06;4996245;28;20050;-71
2021/10/26 17:48:53;;;;;;;23.05;12.15;;;;;;;12.22;100.00;102114.56;4991205;28;20141;-72
2021/10/26 17:51:42;;;;;;;21.35;12.93;;;;;;;11.84;100.00;102112.84;4997014;28;20395;-71
2021/10/26 17:54:28;;;;;;;21.10;13.85;;;;;;;11.35;100.00;102122.44;4997328;28;20037;-72
2021/10/26 17:57:14;;;;;;;23.38;15.07;;;;;;;11.56;100.00;102122.44;4996876;28;20026;-72
2021/10/26 18:00:02;;;;;;;22.08;14.88;;;;;;;11.88;100.00;102112.88;4991051;28;20034;-72
2021/10/26 18:02:48;;;;;;;25.42;15.15;;;;;;;11.90;100.00;102113.72;4997430;28;20436;-71
2021/10/26 18:56:08;;;;;;;17.05;9.98;;;;;;;11.46;100.00;102117.19;5007858;23;20054;-71
2021/10/26 18:58:54;;;;;;;14.60;9.70;;;;;;;11.28;100.00;102119.78;4995233;28;20041;-71
2021/10/26 19:01:39;;;;;;;15.00;9.57;;;;;;;11.45;100.00;102121.56;4995315;28;20085;-72
2021/10/26 19:04:25;;;;;;;15.10;9.95;;;;;;;10.84;100.00;102116.19;4995531;28;20022;-71
2021/10/26 19:07:12;;;;;;;16.65;10.70;;;;;;;10.98;100.00;102114.47;4994606;28;20026;-71
2021/10/26 19:09:58;;;;;;;15.60;10.32;;;;;;;11.10;100.00;102115.38;4994760;28;20033;-72
2021/10/26 19:12:45;;;;;;;16.42;9.93;;;;;;;11.34;100.00;102120.69;4995376;28;20112;-72
2021/10/26 19:15:31;;;;;;;14.07;9.43;;;;;;;11.06;100.00;102115.34;4994661;28;20450;-72
2021/10/26 19:18:17;;;;;;;14.90;9.18;;;;;;;11.12;100.00;102124.13;4994711;28;20400;-73
2021/10/26 19:21:03;;;;;;;13.80;9.48;;;;;;;11.15;100.00;102120.63;4995353;28;20038;-72
2021/10/26 19:23:49;;;;;;;18.02;10.30;;;;;;;10.96;100.00;102117.06;4994950;28;20518;-72
2021/10/26 19:26:35;;;;;;;16.98;10.07;;;;;;;10.91;100.00;102118.81;4994399;28;20172;-71
2021/10/26 19:29:25;;;;;;;14.07;9.68;;;;;;;11.11;100.00;102125.00;4994716;28;20513;-71
2021/10/26 19:32:11;;;;;;;18.08;10.80;;;;;;;10.88;100.00;102129.28;4994838;28;20034;-72
2021/10/26 19:34:57;;;;;;;14.65;9.73;;;;;;;11.21;100.00;102126.75;4994595;28;20024;-72
2021/10/26 19:37:43;;;;;;;15.27;10.20;;;;;;;11.10;100.00;102133.75;4994811;28;20038;-72
2021/10/26 19:40:28;;;;;;;13.73;9.98;;;;;;;10.93;100.00;102134.56;4994947;28;20351;-71
2021/10/26 19:43:16;;;;;;;14.25;10.00;;;;;;;11.12;100.00;102134.59;4994342;28;20034;-72
2021/10/26 19:46:02;;;;;;;14.98;9.93;;;;;;;10.85;100.00;102133.66;4994181;28;20030;-71
2021/10/26 19:48:48;;;;;;;20.67;13.57;;;;;;;10.99;100.00;102129.31;4994679;28;20027;-73
2021/10/26 19:51:34;;;;;;;13.73;10.38;;;;;;;10.92;100.00;102133.66;4994316;28;20026;-71
2021/10/26 19:54:21;;;;;;;18.30;11.90;;;;;;;11.11;100.00;102145.97;4993851;28;20061;-72
2021/10/26 19:57:06;;;;;;;14.85;9.07;;;;;;;10.67;100.00;102141.41;4994095;28;20126;-72
2021/10/26 19:59:52;;;;;;;15.45;9.90;;;;;;;10.70;100.00;102144.06;4994429;28;20030;-72
2021/10/26 20:02:38;;;;;;;14.63;9.73;;;;;;;10.41;100.00;102140.41;4994500;28;20038;-71
2021/10/26 20:05:24;;;;;;;13.00;9.25;;;;;;;10.54;100.00;102145.75;4994278;28;20026;-71
2021/10/26 20:08:09;;;;;;;14.65;9.80;;;;;;;10.77;100.00;102138.84;4994667;28;20026;-72
2021/10/26 20:10:55;;;;;;;14.68;9.82;;;;;;;10.65;100.00;102144.03;4974955;28;20030;-72
2021/10/26 20:13:41;;;;;;;13.35;9.70;;;;;;;10.94;100.00;102142.44;4995883;28;20452;-71
2021/10/26 20:16:27;;;;;;;18.80;13.27;;;;;;;10.73;100.00;102144.94;4994881;28;20085;-72
2021/10/26 20:19:32;;;;;;;16.58;9.85;;;;;;;10.72;100.00;102143.19;4991377;28;20041;-71
2021/10/26 20:22:36;;;;;;;17.20;9.60;;;;;;;10.62;100.00;102137.91;4994065;28;20030;-72
2021/10/26 20:25:22;;;;;;;14.88;9.52;;;;;;;10.55;100.00;102144.88;4993914;28;20369;-71
2021/10/26 20:31:13;;;;;;;17.77;12.75;;;;;;;10.71;100.00;102136.22;4999846;28;20030;-72
2021/10/26 20:34:05;;;;;;;19.02;10.27;;;;;;;10.37;100.00;102136.03;4992606;28;20353;-72
2021/10/26 20:36:51;;;;;;;15.57;11.02;;;;;;;10.45;100.00;102137.81;4998051;28;20027;-71
2021/10/26 20:39:38;;;;;;;16.40;11.98;;;;;;;10.55;100.00;102133.50;4997606;28;20037;-72
2021/10/26 20:42:24;;;;;;;20.33;11.23;;;;;;;10.25;100.00;102135.97;4997423;28;20027;-72
2021/10/26 20:45:10;;;;;;;18.38;11.75;;;;;;;10.44;100.00;102135.22;4994353;28;20042;-72
2021/10/26 20:47:56;;;;;;;17.88;12.07;;;;;;;10.57;100.00;102132.63;4998058;28;20034;-71
2021/10/26 20:50:52;;;;;;;20.73;14.00;;;;;;;10.33;100.00;102129.88;4997674;28;20018;-72
2021/10/26 20:53:38;;;;;;;21.75;13.75;;;;;;;10.54;100.00;102129.13;4997759;28;20030;-71
2021/10/26 20:56:23;;;;;;;20.23;14.27;;;;;;;10.31;100.00;102128.13;4997763;28;20053;-70
2021/10/26 20:59:11;;;;;;;20.92;14.30;;;;;;;10.34;100.00;102128.16;4997532;28;20030;-72
2021/10/26 21:01:58;;;;;;;36.15;24.98;;;;;;;10.10;100.00;102129.72;4997661;28;20445;-71
2021/10/26 21:04:43;;;;;;;21.48;13.38;;;;;;;10.00;100.00;102127.00;4990351;28;20046;-71
2021/10/26 21:07:29;;;;;;;23.00;14.10;;;;;;;10.12;100.00;102121.88;4997450;28;20045;-71
2021/10/26 21:10:15;;;;;;;23.10;14.13;;;;;;;10.25;100.00;102121.13;4998061;28;20375;-71
2021/10/26 21:13:01;;;;;;;23.08;14.18;;;;;;;10.59;100.00;102120.44;4997896;28;20030;-71
2021/10/26 21:15:47;;;;;;;25.17;14.25;;;;;;;10.28;100.00;102115.03;4990888;28;20048;-72
2021/10/26 21:18:33;;;;;;;21.02;12.93;;;;;;;9.79;100.00;102114.66;4988708;28;20027;-70
2021/10/26 21:21:20;;;;;;;18.13;12.80;;;;;;;9.68;100.00;102112.78;4997373;28;20113;-72
2021/10/26 21:24:06;;;;;;;17.13;12.25;;;;;;;9.92;100.00;102107.75;4997081;28;20043;-71
2021/10/26 21:26:53;;;;;;;17.75;11.48;;;;;;;9.55;100.00;102118.78;4991683;28;20041;-71
2021/10/26 21:29:38;;;;;;;21.27;15.65;;;;;;;9.52;100.00;102121.38;4997485;28;20038;-72
2021/10/26 21:32:31;;;;;;;24.60;15.35;;;;;;;9.48;100.00;102111.75;4995280;28;20161;-71
2021/10/26 21:35:19;;;;;;;24.13;15.55;;;;;;;9.52;100.00;102124.88;4997780;28;20113;-71
2021/10/26 21:38:10;;;;;;;20.40;13.45;;;;;;;9.25;100.00;102121.13;4996438;28;20034;-71
2021/10/26 21:40:56;;;;;;;18.25;12.80;;;;;;;9.56;100.00;102112.69;4996464;28;20349;-72
2021/10/26 21:43:42;;;;;;;20.92;12.35;;;;;;;9.33;100.00;102120.31;4996835;28;20062;-71
2021/10/26 21:46:28;;;;;;;20.80;13.93;;;;;;;9.46;100.00;102123.94;4996235;28;20031;-72
2021/10/26 21:49:15;;;;;;;20.20;14.50;;;;;;;9.49;100.00;102126.59;4996716;28;20432;-71
2021/10/26 21:52:01;;;;;;;23.08;14.90;;;;;;;9.34;100.00;102115.97;4996347;28;20117;-72
2021/10/26 21:54:47;;;;;;;17.83;13.18;;;;;;;9.42;100.00;102120.44;4996766;28;20046;-71
2021/10/26 21:57:33;;;;;;;19.15;14.38;;;;;;;9.59;100.00;102113.59;4997275;28;20099;-71
2021/10/26 22:00:19;;;;;;;19.80;13.32;;;;;;;9.47;100.00;102117.84;4996163;28;20539;-72
2021/10/26 22:03:05;;;;;;;22.70;15.45;;;;;;;9.40;100.00;102126.50;4992792;28;20042;-71
2021/10/26 22:05:52;;;;;;;21.10;13.48;;;;;;;9.70;100.00;102111.94;4997038;28;20026;-71
2021/10/26 22:08:40;;;;;;;23.83;14.43;;;;;;;9.33;100.00;102109.88;4996394;28;20034;-72
2021/10/26 22:11:27;;;;;;;22.88;14.30;;;;;;;9.58;100.00;102105.75;4996610;28;20080;-72
2021/10/26 22:14:17;;;;;;;23.67;14.23;;;;;;;9.81;100.00;102104.19;4996131;28;20491;-71
2021/10/26 22:17:03;;;;;;;23.15;15.00;;;;;;;9.66;100.00;102098.84;4996790;28;20463;-71
2021/10/26 22:19:49;;;;;;;25.10;15.25;;;;;;;9.70;100.00;102106.69;4996642;28;20452;-71
2021/10/26 22:22:35;;;;;;;21.08;14.80;;;;;;;9.15;100.00;102104.47;4995912;28;20034;-72
2021/10/26 22:25:21;;;;;;;23.27;15.32;;;;;;;9.58;100.00;102100.50;4995781;28;20026;-71
2021/10/26 22:28:07;;;;;;;24.75;14.27;;;;;;;9.49;100.00;102105.66;4995767;28;20050;-70
2021/10/26 22:30:53;;;;;;;22.98;15.25;;;;;;;9.46;100.00;102106.53;4995539;28;20113;-71
2021/10/26 22:33:39;;;;;;;24.20;16.20;;;;;;;9.51;100.00;102094.34;4995822;28;20054;-72
2021/10/26 22:36:25;;;;;;;23.83;15.18;;;;;;;9.65;100.00;102094.47;4995327;28;20022;-72
2021/10/26 22:39:11;;;;;;;21.38;15.75;;;;;;;9.35;100.00;102102.94;4995865;28;20377;-71
2021/10/26 22:41:57;;;;;;;27.00;16.10;;;;;;;9.42;100.00;102107.34;4995848;28;20033;-71
2021/10/26 22:44:43;;;;;;;26.92;16.55;;;;;;;9.66;100.00;102104.91;4995577;28;20411;-72
2021/10/26 22:47:28;;;;;;;23.67;15.50;;;;;;;9.73;100.00;102105.88;4995824;28;20034;-70
2021/10/26 22:50:15;;;;;;;24.60;15.98;;;;;;;9.56;100.00;102104.84;4994984;28;20026;-72
2021/10/26 22:53:01;;;;;;;24.20;15.02;;;;;;;9.46;100.00;102116.09;4995856;28;20364;-72
2021/10/26 22:55:48;;;;;;;23.65;15.23;;;;;;;9.64;100.00;102111.00;5013395;28;20057;-72
2021/10/26 22:58:34;;;;;;;26.10;16.13;;;;;;;9.08;100.00;102113.09;5035654;28;20057;-71
2021/10/26 23:01:21;;;;;;;21.10;15.52;;;;;;;9.34;100.00;102119.50;5020545;28;20034;-72
2021/10/26 23:04:07;;;;;;;34.05;20.20;;;;;;;9.11;100.00;102114.84;5034828;28;20514;-72
2021/10/26 23:06:53;;;;;;;94.47;47.53;;;;;;;8.84;100.00;102117.19;5035340;28;20374;-71
2021/10/26 23:09:39;;;;;;;53.42;30.52;;;;;;;8.91;100.00;102116.38;5035256;28;20021;-72
2021/10/26 23:12:24;;;;;;;70.93;38.47;;;;;;;8.78;100.00;102111.88;5035363;28;20333;-71
2021/10/26 23:15:11;;;;;;;59.45;34.85;;;;;;;8.98;100.00;102110.38;5035311;28;20017;-72
2021/10/26 23:17:57;;;;;;;56.95;38.88;;;;;;;8.82;100.00;102108.44;5034500;28;20029;-70
2021/10/26 23:20:42;;;;;;;27.63;17.73;;;;;;;8.76;100.00;102108.38;5035545;28;20040;-71
2021/10/26 23:23:28;;;;;;;30.13;20.05;;;;;;;8.58;100.00;102109.03;5035200;28;20095;-71
2021/10/26 23:26:14;;;;;;;32.53;21.42;;;;;;;8.32;100.00;102105.19;5034887;28;20030;-71
2021/10/26 23:29:00;;;;;;;26.05;18.83;;;;;;;8.40;100.00;102110.53;5035398;28;20042;-71
2021/10/26 23:31:47;;;;;;;25.52;18.33;;;;;;;8.24;100.00;102111.16;5034436;28;20033;-71
2021/10/26 23:34:32;;;;;;;24.80;18.13;;;;;;;8.42;100.00;102108.78;5035231;28;20443;-71
2021/10/26 23:37:18;;;;;;;25.88;18.42;;;;;;;8.27;100.00;102113.81;5035315;28;20328;-71
2021/10/26 23:40:04;;;;;;;27.52;19.75;;;;;;;8.41;100.00;102112.28;5019622;28;20048;-71
2021/10/26 23:42:50;;;;;;;27.67;18.90;;;;;;;8.42;100.00;102111.41;5019309;28;20047;-71
2021/10/26 23:45:37;;;;;;;25.20;17.02;;;;;;;8.35;100.00;102115.69;5034747;28;20056;-71
2021/10/26 23:48:23;;;;;;;25.27;15.68;;;;;;;8.27;100.00;102111.19;5034792;28;20121;-71
2021/10/26 23:51:08;;;;;;;24.52;15.70;;;;;;;8.02;100.00;102109.94;5034896;28;20048;-71
2021/10/26 23:53:54;;;;;;;24.90;15.77;;;;;;;7.78;100.00;102112.16;5034600;28;20048;-72
2021/10/26 23:56:40;;;;;;;22.15;15.38;;;;;;;7.87;100.00;102114.91;5034660;28;20152;-71
2021/10/26 23:59:25;;;;;;;22.95;16.20;;;;;;;8.21;100.00;102108.50;5034638;28;20367;-71
